sensor_id;sensor_type;location;lat;lon;timestamp;temperature;humidity
53926;DHT22;39836;52.754;6.866;2023-07-29T02:21:22;17.60;82.90
53926;DHT22;39836;52.754;6.866;2023-07-29T02:23:48;17.60;82.90
53926;DHT22;39836;52.754;6.866;2023-07-29T02:26:15;17.60;83.00
53926;DHT22;39836;52.754;6.866;2023-07-29T02:29:10;17.60;83.00
53926;DHT22;39836;52.754;6.866;2023-07-29T02:32:01;17.60;83.00
53926;DHT22;39836;52.754;6.866;2023-07-29T02:34:27;17.60;83.00
53926;DHT22;39836;52.754;6.866;2023-07-29T02:36:53;17.60;83.00
53926;DHT22;39836;52.754;6.866;2023-07-29T02:39:19;17.60;83.00
53926;DHT22;39836;52.754;6.866;2023-07-29T02:41:44;17.60;83.00
53926;DHT22;39836;52.754;6.866;2023-07-29T02:44:10;17.60;83.00
53926;DHT22;39836;52.754;6.866;2023-07-29T02:46:36;17.60;83.00
53926;DHT22;39836;52.754;6.866;2023-07-29T02:49:02;17.60;83.00
53926;DHT22;39836;52.754;6.866;2023-07-29T02:51:29;17.60;83.00
53926;DHT22;39836;52.754;6.866;2023-07-29T02:53:55;17.50;82.90
53926;DHT22;39836;52.754;6.866;2023-07-29T02:56:21;17.50;82.90
53926;DHT22;39836;52.754;6.866;2023-07-29T02:58:46;17.40;82.80
53926;DHT22;39836;52.754;6.866;2023-07-29T03:01:12;17.40;82.80
53926;DHT22;39836;52.754;6.866;2023-07-29T03:03:38;17.40;82.80
53926;DHT22;39836;52.754;6.866;2023-07-29T03:06:06;17.30;82.80
53926;DHT22;39836;52.754;6.866;2023-07-29T03:08:33;17.20;82.70
53926;DHT22;39836;52.754;6.866;2023-07-29T03:11:04;17.20;82.70
53926;DHT22;39836;52.754;6.866;2023-07-29T03:13:30;17.20;82.80
53926;DHT22;39836;52.754;6.866;2023-07-29T03:16:07;17.50;82.90
53926;DHT22;39836;52.754;6.866;2023-07-29T09:53:52;22.50;77.90
53926;DHT22;39836;52.754;6.866;2023-07-29T09:56:27;22.40;78.00
53926;DHT22;39836;52.754;6.866;2023-07-29T09:59:04;22.40;78.40
53926;DHT22;39836;52.754;6.866;2023-07-29T10:01:30;22.50;78.00
53926;DHT22;39836;52.754;6.866;2023-07-29T10:04:00;22.60;78.20
53926;DHT22;39836;52.754;6.866;2023-07-29T10:06:29;22.80;78.40
53926;DHT22;39836;52.754;6.866;2023-07-29T10:08:55;22.90;77.90
53926;DHT22;39836;52.754;6.866;2023-07-29T10:11:21;22.80;77.40
53926;DHT22;39836;52.754;6.866;2023-07-29T10:13:48;22.60;77.50
53926;DHT22;39836;52.754;6.866;2023-07-29T10:16:15;22.60;77.90
53926;DHT22;39836;52.754;6.866;2023-07-29T10:18:40;22.50;78.00
53926;DHT22;39836;52.754;6.866;2023-07-29T10:21:07;22.60;78.40
53926;DHT22;39836;52.754;6.866;2023-07-29T10:23:41;22.80;78.50
53926;DHT22;39836;52.754;6.866;2023-07-29T10:26:10;22.80;78.10
53926;DHT22;39836;52.754;6.866;2023-07-29T10:28:40;23.00;78.10
53926;DHT22;39836;52.754;6.866;2023-07-29T10:31:06;23.10;77.30
53926;DHT22;39836;52.754;6.866;2023-07-29T10:33:34;23.00;76.90
53926;DHT22;39836;52.754;6.866;2023-07-29T10:36:00;22.70;76.90
53926;DHT22;39836;52.754;6.866;2023-07-29T10:38:26;22.50;77.20
53926;DHT22;39836;52.754;6.866;2023-07-29T10:40:56;22.50;77.90
53926;DHT22;39836;52.754;6.866;2023-07-29T10:43:42;22.50;78.00
53926;DHT22;39836;52.754;6.866;2023-07-29T10:46:21;22.80;78.30
53926;DHT22;39836;52.754;6.866;2023-07-29T10:51:36;23.30;77.70
53926;DHT22;39836;52.754;6.866;2023-07-29T10:54:09;23.50;76.80
53926;DHT22;39836;52.754;6.866;2023-07-29T10:56:36;23.40;76.40
53926;DHT22;39836;52.754;6.866;2023-07-29T10:59:31;23.20;76.50
53926;DHT22;39836;52.754;6.866;2023-07-29T11:01:59;23.00;76.20
53926;DHT22;39836;52.754;6.866;2023-07-29T11:04:28;23.10;77.10
53926;DHT22;39836;52.754;6.866;2023-07-29T11:09:59;23.30;76.90
53926;DHT22;39836;52.754;6.866;2023-07-29T11:17:50;22.90;76.60
53926;DHT22;39836;52.754;6.866;2023-07-29T11:20:17;22.80;76.60
53926;DHT22;39836;52.754;6.866;2023-07-29T11:22:43;22.70;76.60
53926;DHT22;39836;52.754;6.866;2023-07-29T11:25:12;22.60;76.70
53926;DHT22;39836;52.754;6.866;2023-07-29T11:27:38;22.80;77.50
53926;DHT22;39836;52.754;6.866;2023-07-29T11:30:09;23.10;77.50
53926;DHT22;39836;52.754;6.866;2023-07-29T11:32:36;23.30;77.30
53926;DHT22;39836;52.754;6.866;2023-07-29T11:35:06;23.40;77.10
53926;DHT22;39836;52.754;6.866;2023-07-29T11:37:36;23.60;77.30
53926;DHT22;39836;52.754;6.866;2023-07-29T11:40:03;23.60;76.40
53926;DHT22;39836;52.754;6.866;2023-07-29T11:42:32;23.40;76.30
53926;DHT22;39836;52.754;6.866;2023-07-29T11:44:59;23.50;76.60
53926;DHT22;39836;52.754;6.866;2023-07-29T11:47:25;23.60;76.20
53926;DHT22;39836;52.754;6.866;2023-07-29T11:49:51;23.60;75.90
53926;DHT22;39836;52.754;6.866;2023-07-29T11:52:18;23.50;75.70
53926;DHT22;39836;52.754;6.866;2023-07-29T11:54:48;23.20;76.00
53926;DHT22;39836;52.754;6.866;2023-07-29T11:57:14;23.00;76.10
53926;DHT22;39836;52.754;6.866;2023-07-29T11:59:41;22.90;75.70
53926;DHT22;39836;52.754;6.866;2023-07-29T12:02:13;22.80;75.90
53926;DHT22;39836;52.754;6.866;2023-07-29T12:04:41;23.00;76.50
53926;DHT22;39836;52.754;6.866;2023-07-29T12:07:07;23.20;76.70
53926;DHT22;39836;52.754;6.866;2023-07-29T12:09:34;23.10;76.20
53926;DHT22;39836;52.754;6.866;2023-07-29T12:12:02;23.10;76.30
53926;DHT22;39836;52.754;6.866;2023-07-29T12:14:28;23.20;76.50
53926;DHT22;39836;52.754;6.866;2023-07-29T12:16:54;23.30;75.90
53926;DHT22;39836;52.754;6.866;2023-07-29T12:19:20;23.50;76.40
53926;DHT22;39836;52.754;6.866;2023-07-29T12:21:47;23.80;76.50
53926;DHT22;39836;52.754;6.866;2023-07-29T12:24:14;24.00;75.90
53926;DHT22;39836;52.754;6.866;2023-07-29T12:26:44;24.10;75.10
53926;DHT22;39836;52.754;6.866;2023-07-29T12:29:13;24.40;74.70
53926;DHT22;39836;52.754;6.866;2023-07-29T12:31:39;24.60;74.10
53926;DHT22;39836;52.754;6.866;2023-07-29T12:34:05;24.90;74.10
53926;DHT22;39836;52.754;6.866;2023-07-29T12:36:42;25.00;73.50
53926;DHT22;39836;52.754;6.866;2023-07-29T12:39:26;24.90;73.00
53926;DHT22;39836;52.754;6.866;2023-07-29T12:41:53;24.80;73.20
53926;DHT22;39836;52.754;6.866;2023-07-29T12:44:19;24.80;72.80
53926;DHT22;39836;52.754;6.866;2023-07-29T12:46:46;24.50;73.00
53926;DHT22;39836;52.754;6.866;2023-07-29T12:49:11;24.30;72.80
53926;DHT22;39836;52.754;6.866;2023-07-29T12:51:37;24.40;73.30
53926;DHT22;39836;52.754;6.866;2023-07-29T12:54:04;24.70;73.70
53926;DHT22;39836;52.754;6.866;2023-07-29T12:56:30;24.80;73.60
53926;DHT22;39836;52.754;6.866;2023-07-29T12:58:57;24.80;73.70
53926;DHT22;39836;52.754;6.866;2023-07-29T13:01:27;24.70;73.60
53926;DHT22;39836;52.754;6.866;2023-07-29T13:03:53;24.50;73.40
53926;DHT22;39836;52.754;6.866;2023-07-29T13:06:19;24.30;73.50
53926;DHT22;39836;52.754;6.866;2023-07-29T13:08:46;24.10;73.60
53926;DHT22;39836;52.754;6.866;2023-07-29T13:11:12;23.90;73.60
53926;DHT22;39836;52.754;6.866;2023-07-29T13:13:38;23.70;73.50
53926;DHT22;39836;52.754;6.866;2023-07-29T13:16:04;23.40;73.50
53926;DHT22;39836;52.754;6.866;2023-07-29T13:18:29;23.40;73.80
53926;DHT22;39836;52.754;6.866;2023-07-29T13:20:55;23.30;74.00
53926;DHT22;39836;52.754;6.866;2023-07-29T13:23:21;23.30;75.90
53926;DHT22;39836;52.754;6.866;2023-07-29T13:25:47;23.10;77.00
53926;DHT22;39836;52.754;6.866;2023-07-29T13:28:13;22.90;77.30
53926;DHT22;39836;52.754;6.866;2023-07-29T13:30:39;23.10;78.20
53926;DHT22;39836;52.754;6.866;2023-07-29T13:33:06;23.70;78.50
53926;DHT22;39836;52.754;6.866;2023-07-29T13:35:32;24.20;78.00
53926;DHT22;39836;52.754;6.866;2023-07-29T13:37:58;24.60;77.10
53926;DHT22;39836;52.754;6.866;2023-07-29T13:40:24;24.80;76.60
53926;DHT22;39836;52.754;6.866;2023-07-29T13:42:49;24.70;75.90
53926;DHT22;39836;52.754;6.866;2023-07-29T13:45:15;24.50;75.40
53926;DHT22;39836;52.754;6.866;2023-07-29T13:47:41;24.30;75.50
53926;DHT22;39836;52.754;6.866;2023-07-29T13:50:07;24.30;75.60
53926;DHT22;39836;52.754;6.866;2023-07-29T13:52:36;24.50;76.40
53926;DHT22;39836;52.754;6.866;2023-07-29T13:55:05;24.90;75.80
53926;DHT22;39836;52.754;6.866;2023-07-29T13:57:31;25.30;74.40
53926;DHT22;39836;52.754;6.866;2023-07-29T13:59:57;25.50;74.10
53926;DHT22;39836;52.754;6.866;2023-07-29T14:02:23;25.40;73.80
53926;DHT22;39836;52.754;6.866;2023-07-29T14:04:49;25.20;73.60
53926;DHT22;39836;52.754;6.866;2023-07-29T14:07:15;24.80;73.40
53926;DHT22;39836;52.754;6.866;2023-07-29T14:09:41;24.80;73.10
53926;DHT22;39836;52.754;6.866;2023-07-29T14:12:08;24.80;73.00
53926;DHT22;39836;52.754;6.866;2023-07-29T14:14:38;24.90;72.70
53926;DHT22;39836;52.754;6.866;2023-07-29T14:17:04;25.20;72.60
53926;DHT22;39836;52.754;6.866;2023-07-29T14:19:31;25.00;72.80
53926;DHT22;39836;52.754;6.866;2023-07-29T14:21:56;24.70;72.60
53926;DHT22;39836;52.754;6.866;2023-07-29T14:24:22;24.30;72.70
53926;DHT22;39836;52.754;6.866;2023-07-29T14:26:48;23.80;72.70
53926;DHT22;39836;52.754;6.866;2023-07-29T14:29:14;23.30;73.00
53926;DHT22;39836;52.754;6.866;2023-07-29T14:31:39;22.90;73.60
53926;DHT22;39836;52.754;6.866;2023-07-29T14:34:05;22.60;74.10
53926;DHT22;39836;52.754;6.866;2023-07-29T14:36:31;22.70;74.60
53926;DHT22;39836;52.754;6.866;2023-07-29T14:38:56;23.10;74.70
53926;DHT22;39836;52.754;6.866;2023-07-29T14:41:22;23.40;74.40
53926;DHT22;39836;52.754;6.866;2023-07-29T14:43:48;23.50;74.10
53926;DHT22;39836;52.754;6.866;2023-07-29T14:46:14;23.30;74.10
53926;DHT22;39836;52.754;6.866;2023-07-29T14:48:39;23.10;74.40
53926;DHT22;39836;52.754;6.866;2023-07-29T14:51:05;23.00;74.60
53926;DHT22;39836;52.754;6.866;2023-07-29T14:53:31;22.90;74.60
53926;DHT22;39836;52.754;6.866;2023-07-29T14:55:56;22.60;74.80
53926;DHT22;39836;52.754;6.866;2023-07-29T14:58:22;22.40;75.00
53926;DHT22;39836;52.754;6.866;2023-07-29T15:00:51;22.30;75.40
53926;DHT22;39836;52.754;6.866;2023-07-29T15:03:17;21.90;76.90
53926;DHT22;39836;52.754;6.866;2023-07-29T15:05:42;21.70;77.80
53926;DHT22;39836;52.754;6.866;2023-07-29T15:08:08;21.40;79.00
53926;DHT22;39836;52.754;6.866;2023-07-29T15:10:34;21.00;79.90
53926;DHT22;39836;52.754;6.866;2023-07-29T15:12:59;20.50;80.40
53926;DHT22;39836;52.754;6.866;2023-07-29T15:15:25;20.10;80.80
53926;DHT22;39836;52.754;6.866;2023-07-29T15:17:51;19.80;81.40
53926;DHT22;39836;52.754;6.866;2023-07-29T15:20:16;19.60;82.40
53926;DHT22;39836;52.754;6.866;2023-07-29T15:22:42;20.00;83.80
53926;DHT22;39836;52.754;6.866;2023-07-29T15:25:09;20.80;84.50
53926;DHT22;39836;52.754;6.866;2023-07-29T15:27:35;21.40;85.00
53926;DHT22;39836;52.754;6.866;2023-07-29T15:30:01;22.20;85.10
53926;DHT22;39836;52.754;6.866;2023-07-29T15:32:27;22.90;85.00
53926;DHT22;39836;52.754;6.866;2023-07-29T15:34:53;23.20;84.30
53926;DHT22;39836;52.754;6.866;2023-07-29T15:37:19;23.40;84.20
53926;DHT22;39836;52.754;6.866;2023-07-29T15:39:45;23.40;84.10
53926;DHT22;39836;52.754;6.866;2023-07-29T15:42:11;23.00;83.60
53926;DHT22;39836;52.754;6.866;2023-07-29T15:44:36;22.40;83.40
53926;DHT22;39836;52.754;6.866;2023-07-29T15:47:05;21.90;83.20
53926;DHT22;39836;52.754;6.866;2023-07-29T15:49:31;21.60;84.20
53926;DHT22;39836;52.754;6.866;2023-07-29T15:51:56;21.40;83.60
53926;DHT22;39836;52.754;6.866;2023-07-29T15:54:22;21.10;83.40
53926;DHT22;39836;52.754;6.866;2023-07-29T15:56:48;21.00;83.60
53926;DHT22;39836;52.754;6.866;2023-07-29T15:59:13;21.10;83.90
53926;DHT22;39836;52.754;6.866;2023-07-29T16:01:39;21.00;83.50
53926;DHT22;39836;52.754;6.866;2023-07-29T16:04:05;20.90;83.50
53926;DHT22;39836;52.754;6.866;2023-07-29T16:06:30;20.90;83.80
53926;DHT22;39836;52.754;6.866;2023-07-29T16:08:56;20.80;83.40
53926;DHT22;39836;52.754;6.866;2023-07-29T16:11:22;20.70;83.40
53926;DHT22;39836;52.754;6.866;2023-07-29T16:13:47;20.70;83.30
53926;DHT22;39836;52.754;6.866;2023-07-29T16:16:14;20.70;83.20
53926;DHT22;39836;52.754;6.866;2023-07-29T16:18:39;20.80;83.10
53926;DHT22;39836;52.754;6.866;2023-07-29T16:21:05;20.90;83.00
53926;DHT22;39836;52.754;6.866;2023-07-29T16:23:33;21.00;82.50
53926;DHT22;39836;52.754;6.866;2023-07-29T16:25:59;21.00;82.70
53926;DHT22;39836;52.754;6.866;2023-07-29T16:28:25;21.10;82.30
53926;DHT22;39836;52.754;6.866;2023-07-29T16:30:51;21.20;82.50
53926;DHT22;39836;52.754;6.866;2023-07-29T16:33:17;21.20;82.60
53926;DHT22;39836;52.754;6.866;2023-07-29T16:35:42;21.20;82.40
53926;DHT22;39836;52.754;6.866;2023-07-29T16:38:08;21.20;82.10
53926;DHT22;39836;52.754;6.866;2023-07-29T16:40:34;21.30;82.20
53926;DHT22;39836;52.754;6.866;2023-07-29T16:43:00;21.30;82.70
53926;DHT22;39836;52.754;6.866;2023-07-29T16:45:26;21.40;82.40
53926;DHT22;39836;52.754;6.866;2023-07-29T16:47:56;21.40;82.00
53926;DHT22;39836;52.754;6.866;2023-07-29T16:50:21;21.40;82.20
53926;DHT22;39836;52.754;6.866;2023-07-29T16:52:47;21.40;81.70
53926;DHT22;39836;52.754;6.866;2023-07-29T16:55:14;21.50;81.70
53926;DHT22;39836;52.754;6.866;2023-07-29T16:57:40;21.60;82.00
53926;DHT22;39836;52.754;6.866;2023-07-29T17:00:09;21.80;82.10
53926;DHT22;39836;52.754;6.866;2023-07-29T17:02:35;22.00;82.00
53926;DHT22;39836;52.754;6.866;2023-07-29T17:05:01;22.00;81.70
53926;DHT22;39836;52.754;6.866;2023-07-29T17:07:30;22.10;81.60
53926;DHT22;39836;52.754;6.866;2023-07-29T17:09:55;22.10;81.40
53926;DHT22;39836;52.754;6.866;2023-07-29T17:12:21;22.10;81.60
53926;DHT22;39836;52.754;6.866;2023-07-29T17:14:47;22.10;81.20
53926;DHT22;39836;52.754;6.866;2023-07-29T17:17:13;21.90;80.80
53926;DHT22;39836;52.754;6.866;2023-07-29T17:19:38;21.80;81.30
53926;DHT22;39836;52.754;6.866;2023-07-29T17:22:06;21.80;81.70
53926;DHT22;39836;52.754;6.866;2023-07-29T17:24:32;21.80;81.70
53926;DHT22;39836;52.754;6.866;2023-07-29T17:27:01;21.80;81.80
53926;DHT22;39836;52.754;6.866;2023-07-29T17:29:30;21.80;81.80
53926;DHT22;39836;52.754;6.866;2023-07-29T17:32:07;21.90;81.80
53926;DHT22;39836;52.754;6.866;2023-07-29T17:34:33;21.90;81.80
53926;DHT22;39836;52.754;6.866;2023-07-29T17:36:59;21.90;81.90
53926;DHT22;39836;52.754;6.866;2023-07-29T17:39:28;21.80;81.90
53926;DHT22;39836;52.754;6.866;2023-07-29T17:41:57;21.80;81.70
53926;DHT22;39836;52.754;6.866;2023-07-29T17:44:23;21.70;81.80
53926;DHT22;39836;52.754;6.866;2023-07-29T17:46:49;21.70;81.80
53926;DHT22;39836;52.754;6.866;2023-07-29T17:49:16;21.60;81.90
53926;DHT22;39836;52.754;6.866;2023-07-29T17:51:42;21.60;82.00
53926;DHT22;39836;52.754;6.866;2023-07-29T17:54:08;21.60;82.10
53926;DHT22;39836;52.754;6.866;2023-07-29T17:56:34;21.60;82.30
53926;DHT22;39836;52.754;6.866;2023-07-29T17:59:00;21.60;82.40
53926;DHT22;39836;52.754;6.866;2023-07-29T18:01:26;21.50;82.20
53926;DHT22;39836;52.754;6.866;2023-07-29T18:03:52;21.40;82.20
53926;DHT22;39836;52.754;6.866;2023-07-29T18:06:27;21.30;82.20
53926;DHT22;39836;52.754;6.866;2023-07-29T18:09:14;21.30;82.30
53926;DHT22;39836;52.754;6.866;2023-07-29T18:11:40;21.20;82.20
53926;DHT22;39836;52.754;6.866;2023-07-29T22:27:50;16.30;82.50
53926;DHT22;39836;52.754;6.866;2023-07-29T22:30:16;16.20;82.40
53926;DHT22;39836;52.754;6.866;2023-07-29T22:36:25;16.20;82.40
53926;DHT22;39836;52.754;6.866;2023-07-29T22:38:50;16.20;82.40
53926;DHT22;39836;52.754;6.866;2023-07-29T22:41:16;16.10;82.30
53926;DHT22;39836;52.754;6.866;2023-07-29T22:43:42;16.10;82.30
53926;DHT22;39836;52.754;6.866;2023-07-29T22:46:08;16.10;82.30
53926;DHT22;39836;52.754;6.866;2023-07-29T22:48:33;16.10;82.30
53926;DHT22;39836;52.754;6.866;2023-07-29T22:50:59;16.00;82.20
53926;DHT22;39836;52.754;6.866;2023-07-29T22:53:26;16.00;82.20
53926;DHT22;39836;52.754;6.866;2023-07-29T23:01:20;15.90;82.20
